sensor_id;sensor_type;location;lat;lon;timestamp;P1;durP1;ratioP1;P2;durP2;ratioP2
10880;SDS011;5493;48.884;8.338;2023-02-11T00:01:21;15.40;;;7.70;;
10880;SDS011;5493;48.884;8.338;2023-02-11T00:03:50;21.93;;;10.30;;
10880;SDS011;5493;48.884;8.338;2023-02-11T00:06:17;18.73;;;8.60;;
10880;SDS011;5493;48.884;8.338;2023-02-11T00:08:44;22.53;;;9.27;;
10880;SDS011;5493;48.884;8.338;2023-02-11T00:11:11;17.60;;;7.80;;
10880;SDS011;5493;48.884;8.338;2023-02-11T00:13:39;14.37;;;8.07;;
10880;SDS011;5493;48.884;8.338;2023-02-11T00:16:07;16.77;;;7.13;;
10880;SDS011;5493;48.884;8.338;2023-02-11T00:18:35;14.47;;;7.43;;
10880;SDS011;5493;48.884;8.338;2023-02-11T00:21:04;12.10;;;7.07;;
10880;SDS011;5493;48.884;8.338;2023-02-11T00:23:32;14.70;;;7.23;;
10880;SDS011;5493;48.884;8.338;2023-02-11T00:25:58;12.47;;;6.27;;
10880;SDS011;5493;48.884;8.338;2023-02-11T00:28:25;15.00;;;7.47;;
10880;SDS011;5493;48.884;8.338;2023-02-11T00:30:55;16.03;;;7.50;;
10880;SDS011;5493;48.884;8.338;2023-02-11T00:33:23;15.27;;;8.20;;
10880;SDS011;5493;48.884;8.338;2023-02-11T00:35:50;15.87;;;7.87;;
10880;SDS011;5493;48.884;8.338;2023-02-11T00:38:16;14.93;;;7.57;;
10880;SDS011;5493;48.884;8.338;2023-02-11T00:40:43;15.80;;;8.03;;
10880;SDS011;5493;48.884;8.338;2023-02-11T00:43:09;12.63;;;6.93;;
10880;SDS011;5493;48.884;8.338;2023-02-11T00:45:36;15.07;;;7.20;;
10880;SDS011;5493;48.884;8.338;2023-02-11T00:48:02;13.80;;;6.67;;
10880;SDS011;5493;48.884;8.338;2023-02-11T00:50:30;15.47;;;7.00;;
10880;SDS011;5493;48.884;8.338;2023-02-11T00:52:56;13.80;;;6.70;;
10880;SDS011;5493;48.884;8.338;2023-02-11T00:55:23;12.03;;;6.40;;
10880;SDS011;5493;48.884;8.338;2023-02-11T00:57:50;13.43;;;7.03;;
10880;SDS011;5493;48.884;8.338;2023-02-11T01:00:16;11.87;;;6.40;;
10880;SDS011;5493;48.884;8.338;2023-02-11T01:02:43;12.13;;;7.37;;
10880;SDS011;5493;48.884;8.338;2023-02-11T01:05:09;13.57;;;6.83;;
10880;SDS011;5493;48.884;8.338;2023-02-11T01:07:37;12.40;;;6.53;;
10880;SDS011;5493;48.884;8.338;2023-02-11T01:10:04;10.87;;;6.03;;
10880;SDS011;5493;48.884;8.338;2023-02-11T01:12:31;13.53;;;6.63;;
10880;SDS011;5493;48.884;8.338;2023-02-11T01:14:57;12.13;;;6.33;;
10880;SDS011;5493;48.884;8.338;2023-02-11T01:17:24;12.70;;;6.33;;
10880;SDS011;5493;48.884;8.338;2023-02-11T01:19:50;15.27;;;6.57;;
10880;SDS011;5493;48.884;8.338;2023-02-11T01:22:17;14.13;;;6.77;;
10880;SDS011;5493;48.884;8.338;2023-02-11T01:24:45;14.80;;;6.47;;
10880;SDS011;5493;48.884;8.338;2023-02-11T01:27:11;15.70;;;7.70;;
10880;SDS011;5493;48.884;8.338;2023-02-11T01:29:38;11.97;;;6.07;;
10880;SDS011;5493;48.884;8.338;2023-02-11T01:32:04;10.27;;;5.77;;
10880;SDS011;5493;48.884;8.338;2023-02-11T01:34:31;8.40;;;4.87;;
10880;SDS011;5493;48.884;8.338;2023-02-11T01:36:58;12.40;;;5.83;;
10880;SDS011;5493;48.884;8.338;2023-02-11T01:39:25;9.80;;;5.53;;
10880;SDS011;5493;48.884;8.338;2023-02-11T01:41:53;12.67;;;6.03;;
10880;SDS011;5493;48.884;8.338;2023-02-11T01:44:21;22.57;;;10.00;;
10880;SDS011;5493;48.884;8.338;2023-02-11T01:46:49;14.70;;;7.43;;
10880;SDS011;5493;48.884;8.338;2023-02-11T01:49:16;22.30;;;8.13;;
10880;SDS011;5493;48.884;8.338;2023-02-11T01:51:47;17.73;;;8.33;;
10880;SDS011;5493;48.884;8.338;2023-02-11T01:54:17;15.10;;;7.13;;
10880;SDS011;5493;48.884;8.338;2023-02-11T01:57:06;13.97;;;7.10;;
10880;SDS011;5493;48.884;8.338;2023-02-11T01:59:51;14.20;;;6.57;;
10880;SDS011;5493;48.884;8.338;2023-02-11T02:02:25;11.27;;;6.87;;
10880;SDS011;5493;48.884;8.338;2023-02-11T02:04:59;12.50;;;7.13;;
10880;SDS011;5493;48.884;8.338;2023-02-11T02:07:31;12.23;;;6.60;;
10880;SDS011;5493;48.884;8.338;2023-02-11T02:10:03;13.03;;;6.83;;
10880;SDS011;5493;48.884;8.338;2023-02-11T02:12:36;13.90;;;6.47;;
10880;SDS011;5493;48.884;8.338;2023-02-11T02:15:22;16.53;;;7.77;;
10880;SDS011;5493;48.884;8.338;2023-02-11T02:17:58;13.70;;;6.67;;
10880;SDS011;5493;48.884;8.338;2023-02-11T02:23:45;12.17;;;6.10;;
10880;SDS011;5493;48.884;8.338;2023-02-11T02:26:32;12.33;;;6.03;;
10880;SDS011;5493;48.884;8.338;2023-02-11T02:29:32;13.20;;;5.77;;
10880;SDS011;5493;48.884;8.338;2023-02-11T02:32:20;12.67;;;5.77;;
10880;SDS011;5493;48.884;8.338;2023-02-11T02:34:55;13.53;;;6.97;;
10880;SDS011;5493;48.884;8.338;2023-02-11T02:37:28;12.73;;;7.00;;
10880;SDS011;5493;48.884;8.338;2023-02-11T02:40:00;13.03;;;6.80;;
10880;SDS011;5493;48.884;8.338;2023-02-11T02:42:32;13.57;;;7.10;;
10880;SDS011;5493;48.884;8.338;2023-02-11T02:45:00;14.53;;;6.40;;
10880;SDS011;5493;48.884;8.338;2023-02-11T02:47:28;12.90;;;7.60;;
10880;SDS011;5493;48.884;8.338;2023-02-11T02:49:54;12.40;;;7.33;;
10880;SDS011;5493;48.884;8.338;2023-02-11T02:52:24;14.00;;;7.33;;
10880;SDS011;5493;48.884;8.338;2023-02-11T02:55:18;13.00;;;6.37;;
10880;SDS011;5493;48.884;8.338;2023-02-11T02:58:06;14.27;;;6.57;;
10880;SDS011;5493;48.884;8.338;2023-02-11T03:01:03;10.70;;;6.40;;
10880;SDS011;5493;48.884;8.338;2023-02-11T03:03:40;12.93;;;6.70;;
10880;SDS011;5493;48.884;8.338;2023-02-11T03:06:14;15.53;;;7.43;;
10880;SDS011;5493;48.884;8.338;2023-02-11T03:08:48;14.63;;;7.57;;
10880;SDS011;5493;48.884;8.338;2023-02-11T03:11:20;14.50;;;7.77;;
10880;SDS011;5493;48.884;8.338;2023-02-11T03:13:48;13.23;;;6.73;;
10880;SDS011;5493;48.884;8.338;2023-02-11T03:16:17;10.43;;;6.70;;
10880;SDS011;5493;48.884;8.338;2023-02-11T03:18:48;11.87;;;6.00;;
10880;SDS011;5493;48.884;8.338;2023-02-11T03:21:18;7.60;;;5.10;;
10880;SDS011;5493;48.884;8.338;2023-02-11T03:23:46;9.83;;;5.83;;
10880;SDS011;5493;48.884;8.338;2023-02-11T03:26:16;10.87;;;5.37;;
10880;SDS011;5493;48.884;8.338;2023-02-11T03:28:48;12.30;;;5.60;;
10880;SDS011;5493;48.884;8.338;2023-02-11T03:31:20;8.30;;;5.40;;
10880;SDS011;5493;48.884;8.338;2023-02-11T03:33:56;10.53;;;5.70;;
10880;SDS011;5493;48.884;8.338;2023-02-11T03:36:31;9.53;;;5.33;;
10880;SDS011;5493;48.884;8.338;2023-02-11T03:39:05;10.07;;;5.50;;
10880;SDS011;5493;48.884;8.338;2023-02-11T03:41:34;10.60;;;5.80;;
10880;SDS011;5493;48.884;8.338;2023-02-11T03:44:02;10.17;;;5.47;;
10880;SDS011;5493;48.884;8.338;2023-02-11T03:46:31;9.83;;;5.53;;
10880;SDS011;5493;48.884;8.338;2023-02-11T03:49:05;9.10;;;4.73;;
10880;SDS011;5493;48.884;8.338;2023-02-11T03:51:36;10.90;;;5.53;;
10880;SDS011;5493;48.884;8.338;2023-02-11T03:54:04;9.17;;;5.30;;
10880;SDS011;5493;48.884;8.338;2023-02-11T03:56:35;10.83;;;5.57;;
10880;SDS011;5493;48.884;8.338;2023-02-11T03:59:06;10.13;;;5.03;;
10880;SDS011;5493;48.884;8.338;2023-02-11T04:01:33;10.00;;;5.97;;
10880;SDS011;5493;48.884;8.338;2023-02-11T04:04:00;12.03;;;5.80;;
10880;SDS011;5493;48.884;8.338;2023-02-11T04:06:28;11.77;;;6.67;;
10880;SDS011;5493;48.884;8.338;2023-02-11T04:08:54;12.73;;;6.27;;
10880;SDS011;5493;48.884;8.338;2023-02-11T04:11:21;9.40;;;5.53;;
10880;SDS011;5493;48.884;8.338;2023-02-11T04:13:47;9.80;;;5.27;;
10880;SDS011;5493;48.884;8.338;2023-02-11T04:16:13;12.03;;;6.40;;
10880;SDS011;5493;48.884;8.338;2023-02-11T04:18:40;14.03;;;6.90;;
10880;SDS011;5493;48.884;8.338;2023-02-11T04:21:06;12.80;;;6.90;;
10880;SDS011;5493;48.884;8.338;2023-02-11T04:23:34;11.83;;;6.63;;
10880;SDS011;5493;48.884;8.338;2023-02-11T04:26:01;11.73;;;6.00;;
10880;SDS011;5493;48.884;8.338;2023-02-11T04:28:27;9.70;;;5.43;;
10880;SDS011;5493;48.884;8.338;2023-02-11T04:30:55;9.00;;;5.37;;
10880;SDS011;5493;48.884;8.338;2023-02-11T04:33:22;10.33;;;6.37;;
10880;SDS011;5493;48.884;8.338;2023-02-11T04:35:49;12.70;;;5.97;;
10880;SDS011;5493;48.884;8.338;2023-02-11T04:38:15;10.97;;;6.33;;
10880;SDS011;5493;48.884;8.338;2023-02-11T04:40:43;8.27;;;4.67;;
10880;SDS011;5493;48.884;8.338;2023-02-11T04:43:10;10.13;;;5.20;;
10880;SDS011;5493;48.884;8.338;2023-02-11T04:45:36;10.43;;;5.27;;
10880;SDS011;5493;48.884;8.338;2023-02-11T04:48:03;13.20;;;6.07;;
10880;SDS011;5493;48.884;8.338;2023-02-11T04:50:30;8.60;;;5.47;;
10880;SDS011;5493;48.884;8.338;2023-02-11T04:52:56;8.10;;;5.23;;
10880;SDS011;5493;48.884;8.338;2023-02-11T04:55:23;14.03;;;5.73;;
10880;SDS011;5493;48.884;8.338;2023-02-11T04:57:50;10.20;;;5.90;;
10880;SDS011;5493;48.884;8.338;2023-02-11T05:00:17;10.87;;;5.90;;
10880;SDS011;5493;48.884;8.338;2023-02-11T05:02:44;10.60;;;5.87;;
10880;SDS011;5493;48.884;8.338;2023-02-11T05:05:10;9.33;;;5.57;;
10880;SDS011;5493;48.884;8.338;2023-02-11T05:07:37;8.93;;;5.23;;
10880;SDS011;5493;48.884;8.338;2023-02-11T05:10:03;9.80;;;5.10;;
10880;SDS011;5493;48.884;8.338;2023-02-11T05:12:30;9.97;;;5.57;;
10880;SDS011;5493;48.884;8.338;2023-02-11T05:14:57;7.07;;;4.63;;
10880;SDS011;5493;48.884;8.338;2023-02-11T05:17:24;8.10;;;5.10;;
10880;SDS011;5493;48.884;8.338;2023-02-11T05:19:50;8.90;;;5.30;;
10880;SDS011;5493;48.884;8.338;2023-02-11T05:22:17;7.77;;;4.70;;
10880;SDS011;5493;48.884;8.338;2023-02-11T05:24:43;7.60;;;4.60;;
10880;SDS011;5493;48.884;8.338;2023-02-11T05:27:10;6.93;;;4.70;;
10880;SDS011;5493;48.884;8.338;2023-02-11T05:29:36;7.30;;;4.43;;
10880;SDS011;5493;48.884;8.338;2023-02-11T05:32:04;9.27;;;4.63;;
10880;SDS011;5493;48.884;8.338;2023-02-11T05:34:33;6.90;;;4.27;;
10880;SDS011;5493;48.884;8.338;2023-02-11T05:36:59;8.27;;;4.80;;
10880;SDS011;5493;48.884;8.338;2023-02-11T05:39:26;6.93;;;4.23;;
10880;SDS011;5493;48.884;8.338;2023-02-11T05:41:52;8.07;;;4.43;;
10880;SDS011;5493;48.884;8.338;2023-02-11T05:44:19;7.37;;;4.40;;
10880;SDS011;5493;48.884;8.338;2023-02-11T05:46:45;7.37;;;4.80;;
10880;SDS011;5493;48.884;8.338;2023-02-11T05:49:14;7.80;;;4.60;;
10880;SDS011;5493;48.884;8.338;2023-02-11T05:51:41;9.00;;;4.93;;
10880;SDS011;5493;48.884;8.338;2023-02-11T05:54:08;9.57;;;5.87;;
10880;SDS011;5493;48.884;8.338;2023-02-11T05:56:34;10.77;;;5.70;;
10880;SDS011;5493;48.884;8.338;2023-02-11T05:59:01;9.30;;;5.67;;
10880;SDS011;5493;48.884;8.338;2023-02-11T06:01:27;9.00;;;5.07;;
10880;SDS011;5493;48.884;8.338;2023-02-11T06:03:54;9.07;;;5.17;;
10880;SDS011;5493;48.884;8.338;2023-02-11T06:06:22;7.53;;;5.10;;
10880;SDS011;5493;48.884;8.338;2023-02-11T06:08:49;10.47;;;5.40;;
10880;SDS011;5493;48.884;8.338;2023-02-11T06:11:15;9.43;;;5.57;;
10880;SDS011;5493;48.884;8.338;2023-02-11T06:13:43;8.23;;;5.07;;
10880;SDS011;5493;48.884;8.338;2023-02-11T06:16:09;7.30;;;4.83;;
10880;SDS011;5493;48.884;8.338;2023-02-11T06:18:36;7.83;;;4.93;;
10880;SDS011;5493;48.884;8.338;2023-02-11T06:21:05;10.87;;;6.00;;
10880;SDS011;5493;48.884;8.338;2023-02-11T06:23:33;8.43;;;5.93;;
10880;SDS011;5493;48.884;8.338;2023-02-11T06:26:01;9.50;;;6.03;;
10880;SDS011;5493;48.884;8.338;2023-02-11T06:28:28;8.30;;;5.10;;
10880;SDS011;5493;48.884;8.338;2023-02-11T06:30:56;12.07;;;6.13;;
10880;SDS011;5493;48.884;8.338;2023-02-11T06:33:22;10.43;;;6.10;;
10880;SDS011;5493;48.884;8.338;2023-02-11T06:35:49;8.77;;;6.53;;
10880;SDS011;5493;48.884;8.338;2023-02-11T06:45:00;9.80;;;5.67;;
10880;SDS011;5493;48.884;8.338;2023-02-11T06:47:27;9.60;;;5.87;;
10880;SDS011;5493;48.884;8.338;2023-02-11T06:49:53;9.83;;;6.40;;
10880;SDS011;5493;48.884;8.338;2023-02-11T06:52:20;8.77;;;4.87;;
10880;SDS011;5493;48.884;8.338;2023-02-11T06:54:46;11.73;;;6.57;;
10880;SDS011;5493;48.884;8.338;2023-02-11T06:57:13;10.90;;;6.53;;
10880;SDS011;5493;48.884;8.338;2023-02-11T06:59:39;12.83;;;6.83;;
10880;SDS011;5493;48.884;8.338;2023-02-11T07:02:09;10.63;;;6.70;;
10880;SDS011;5493;48.884;8.338;2023-02-11T07:04:35;11.07;;;6.53;;
10880;SDS011;5493;48.884;8.338;2023-02-11T07:07:02;12.67;;;7.17;;
10880;SDS011;5493;48.884;8.338;2023-02-11T07:09:28;11.13;;;7.17;;
10880;SDS011;5493;48.884;8.338;2023-02-11T07:11:55;10.90;;;6.73;;
10880;SDS011;5493;48.884;8.338;2023-02-11T07:14:21;12.47;;;7.33;;
10880;SDS011;5493;48.884;8.338;2023-02-11T07:16:48;10.40;;;6.93;;
10880;SDS011;5493;48.884;8.338;2023-02-11T07:19:16;10.97;;;7.03;;
10880;SDS011;5493;48.884;8.338;2023-02-11T07:21:42;13.03;;;7.37;;
10880;SDS011;5493;48.884;8.338;2023-02-11T07:24:09;13.30;;;7.70;;
10880;SDS011;5493;48.884;8.338;2023-02-11T07:26:35;13.27;;;7.50;;
10880;SDS011;5493;48.884;8.338;2023-02-11T07:29:04;11.90;;;6.83;;
10880;SDS011;5493;48.884;8.338;2023-02-11T07:31:30;12.27;;;6.90;;
10880;SDS011;5493;48.884;8.338;2023-02-11T07:33:58;12.43;;;7.57;;
10880;SDS011;5493;48.884;8.338;2023-02-11T07:36:27;12.60;;;7.10;;
10880;SDS011;5493;48.884;8.338;2023-02-11T07:38:55;11.83;;;7.23;;
10880;SDS011;5493;48.884;8.338;2023-02-11T07:41:22;10.23;;;6.80;;
10880;SDS011;5493;48.884;8.338;2023-02-11T07:43:50;10.50;;;6.83;;
10880;SDS011;5493;48.884;8.338;2023-02-11T07:46:18;12.77;;;7.60;;
10880;SDS011;5493;48.884;8.338;2023-02-11T07:48:46;11.67;;;7.60;;
10880;SDS011;5493;48.884;8.338;2023-02-11T07:51:13;12.97;;;8.17;;
10880;SDS011;5493;48.884;8.338;2023-02-11T07:53:42;13.33;;;8.17;;
10880;SDS011;5493;48.884;8.338;2023-02-11T07:56:10;13.83;;;8.70;;
10880;SDS011;5493;48.884;8.338;2023-02-11T07:58:38;13.23;;;8.43;;
10880;SDS011;5493;48.884;8.338;2023-02-11T08:01:06;12.43;;;7.73;;
10880;SDS011;5493;48.884;8.338;2023-02-11T08:03:34;14.30;;;7.80;;
10880;SDS011;5493;48.884;8.338;2023-02-11T08:06:02;14.50;;;7.80;;
10880;SDS011;5493;48.884;8.338;2023-02-11T08:08:29;13.73;;;7.97;;
10880;SDS011;5493;48.884;8.338;2023-02-11T08:10:57;15.43;;;9.00;;
10880;SDS011;5493;48.884;8.338;2023-02-11T08:13:23;15.33;;;9.27;;
10880;SDS011;5493;48.884;8.338;2023-02-11T08:15:50;14.87;;;9.00;;
10880;SDS011;5493;48.884;8.338;2023-02-11T08:18:17;16.53;;;10.73;;
10880;SDS011;5493;48.884;8.338;2023-02-11T08:20:43;17.87;;;10.37;;
10880;SDS011;5493;48.884;8.338;2023-02-11T08:23:10;13.70;;;8.13;;
10880;SDS011;5493;48.884;8.338;2023-02-11T08:25:36;18.27;;;10.50;;
10880;SDS011;5493;48.884;8.338;2023-02-11T08:28:05;17.33;;;9.97;;
10880;SDS011;5493;48.884;8.338;2023-02-11T08:30:33;23.13;;;12.13;;
10880;SDS011;5493;48.884;8.338;2023-02-11T08:32:59;19.43;;;12.53;;
10880;SDS011;5493;48.884;8.338;2023-02-11T08:35:26;16.13;;;10.63;;
10880;SDS011;5493;48.884;8.338;2023-02-11T08:37:52;24.03;;;17.03;;
10880;SDS011;5493;48.884;8.338;2023-02-11T08:40:19;16.73;;;10.93;;
10880;SDS011;5493;48.884;8.338;2023-02-11T08:42:45;17.40;;;10.40;;
10880;SDS011;5493;48.884;8.338;2023-02-11T08:45:13;18.77;;;11.83;;
10880;SDS011;5493;48.884;8.338;2023-02-11T08:47:40;21.27;;;9.80;;
10880;SDS011;5493;48.884;8.338;2023-02-11T08:50:07;18.53;;;10.43;;
10880;SDS011;5493;48.884;8.338;2023-02-11T08:52:34;18.97;;;9.77;;
10880;SDS011;5493;48.884;8.338;2023-02-11T08:55:01;13.63;;;8.17;;
10880;SDS011;5493;48.884;8.338;2023-02-11T08:57:27;14.07;;;7.83;;
10880;SDS011;5493;48.884;8.338;2023-02-11T08:59:54;12.27;;;7.57;;
10880;SDS011;5493;48.884;8.338;2023-02-11T09:02:22;16.60;;;8.80;;
10880;SDS011;5493;48.884;8.338;2023-02-11T09:04:48;17.67;;;8.73;;
10880;SDS011;5493;48.884;8.338;2023-02-11T09:07:15;14.37;;;7.93;;
10880;SDS011;5493;48.884;8.338;2023-02-11T09:09:41;13.07;;;8.13;;
10880;SDS011;5493;48.884;8.338;2023-02-11T09:12:09;14.07;;;7.33;;
10880;SDS011;5493;48.884;8.338;2023-02-11T09:14:35;16.00;;;8.13;;
10880;SDS011;5493;48.884;8.338;2023-02-11T09:17:02;17.00;;;8.90;;
10880;SDS011;5493;48.884;8.338;2023-02-11T09:19:30;13.37;;;9.00;;
10880;SDS011;5493;48.884;8.338;2023-02-11T09:21:56;15.87;;;8.93;;
10880;SDS011;5493;48.884;8.338;2023-02-11T09:24:23;13.77;;;7.43;;
10880;SDS011;5493;48.884;8.338;2023-02-11T09:26:49;14.97;;;8.20;;
10880;SDS011;5493;48.884;8.338;2023-02-11T09:29:16;15.90;;;8.00;;
10880;SDS011;5493;48.884;8.338;2023-02-11T09:31:43;13.73;;;7.87;;
10880;SDS011;5493;48.884;8.338;2023-02-11T09:34:09;14.57;;;7.63;;
10880;SDS011;5493;48.884;8.338;2023-02-11T09:36:38;12.73;;;7.37;;
10880;SDS011;5493;48.884;8.338;2023-02-11T09:39:06;12.67;;;8.43;;
10880;SDS011;5493;48.884;8.338;2023-02-11T09:41:38;10.53;;;6.90;;
10880;SDS011;5493;48.884;8.338;2023-02-11T09:44:16;12.37;;;7.40;;
10880;SDS011;5493;48.884;8.338;2023-02-11T09:46:47;10.83;;;5.60;;
10880;SDS011;5493;48.884;8.338;2023-02-11T09:49:21;9.37;;;5.30;;
10880;SDS011;5493;48.884;8.338;2023-02-11T09:51:52;10.10;;;6.33;;
10880;SDS011;5493;48.884;8.338;2023-02-11T09:54:27;14.60;;;7.97;;
10880;SDS011;5493;48.884;8.338;2023-02-11T09:56:59;11.27;;;5.53;;
10880;SDS011;5493;48.884;8.338;2023-02-11T09:59:25;10.13;;;6.63;;
10880;SDS011;5493;48.884;8.338;2023-02-11T10:01:52;12.17;;;7.17;;
10880;SDS011;5493;48.884;8.338;2023-02-11T10:04:27;13.27;;;6.40;;
10880;SDS011;5493;48.884;8.338;2023-02-11T10:07:12;11.33;;;7.70;;
10880;SDS011;5493;48.884;8.338;2023-02-11T10:09:49;11.57;;;5.87;;
10880;SDS011;5493;48.884;8.338;2023-02-11T10:12:30;13.33;;;7.57;;
10880;SDS011;5493;48.884;8.338;2023-02-11T10:15:14;11.47;;;7.40;;
10880;SDS011;5493;48.884;8.338;2023-02-11T10:17:50;13.00;;;8.60;;
10880;SDS011;5493;48.884;8.338;2023-02-11T10:20:32;11.47;;;6.97;;
10880;SDS011;5493;48.884;8.338;2023-02-11T10:23:07;13.63;;;8.83;;
10880;SDS011;5493;48.884;8.338;2023-02-11T10:25:39;13.63;;;7.97;;
10880;SDS011;5493;48.884;8.338;2023-02-11T10:28:10;13.73;;;8.47;;
10880;SDS011;5493;48.884;8.338;2023-02-11T10:30:40;15.10;;;8.60;;
10880;SDS011;5493;48.884;8.338;2023-02-11T10:33:11;13.47;;;8.00;;
10880;SDS011;5493;48.884;8.338;2023-02-11T10:35:45;17.23;;;10.20;;
10880;SDS011;5493;48.884;8.338;2023-02-11T10:38:13;14.83;;;9.40;;
10880;SDS011;5493;48.884;8.338;2023-02-11T10:40:39;21.03;;;11.90;;
10880;SDS011;5493;48.884;8.338;2023-02-11T10:43:07;18.87;;;10.70;;
10880;SDS011;5493;48.884;8.338;2023-02-11T10:45:38;18.23;;;10.67;;
10880;SDS011;5493;48.884;8.338;2023-02-11T10:51:05;19.87;;;11.70;;
10880;SDS011;5493;48.884;8.338;2023-02-11T10:53:35;17.03;;;9.53;;
10880;SDS011;5493;48.884;8.338;2023-02-11T10:56:02;7.40;;;5.33;;
10880;SDS011;5493;48.884;8.338;2023-02-11T10:58:40;15.70;;;8.80;;
10880;SDS011;5493;48.884;8.338;2023-02-11T11:01:11;12.90;;;7.63;;
10880;SDS011;5493;48.884;8.338;2023-02-11T11:03:39;17.50;;;9.70;;
10880;SDS011;5493;48.884;8.338;2023-02-11T11:06:12;16.97;;;10.57;;
10880;SDS011;5493;48.884;8.338;2023-02-11T11:08:40;18.70;;;9.73;;
10880;SDS011;5493;48.884;8.338;2023-02-11T11:11:10;13.07;;;8.87;;
10880;SDS011;5493;48.884;8.338;2023-02-11T11:13:38;17.63;;;10.10;;
10880;SDS011;5493;48.884;8.338;2023-02-11T11:16:07;12.43;;;8.87;;
10880;SDS011;5493;48.884;8.338;2023-02-11T11:18:40;14.03;;;7.57;;
10880;SDS011;5493;48.884;8.338;2023-02-11T11:21:11;15.40;;;9.33;;
10880;SDS011;5493;48.884;8.338;2023-02-11T11:23:45;14.70;;;8.80;;
10880;SDS011;5493;48.884;8.338;2023-02-11T11:26:14;11.23;;;7.40;;
10880;SDS011;5493;48.884;8.338;2023-02-11T11:28:49;14.20;;;8.83;;
10880;SDS011;5493;48.884;8.338;2023-02-11T11:31:19;14.80;;;7.60;;
10880;SDS011;5493;48.884;8.338;2023-02-11T11:33:48;11.33;;;7.53;;
10880;SDS011;5493;48.884;8.338;2023-02-11T11:36:19;12.87;;;7.33;;
10880;SDS011;5493;48.884;8.338;2023-02-11T11:38:50;13.23;;;8.07;;
10880;SDS011;5493;48.884;8.338;2023-02-11T11:41:24;11.07;;;6.50;;
10880;SDS011;5493;48.884;8.338;2023-02-11T11:43:53;10.27;;;5.87;;
10880;SDS011;5493;48.884;8.338;2023-02-11T11:46:40;10.60;;;7.00;;
10880;SDS011;5493;48.884;8.338;2023-02-11T11:49:12;11.03;;;7.17;;
10880;SDS011;5493;48.884;8.338;2023-02-11T11:51:46;14.03;;;7.57;;
10880;SDS011;5493;48.884;8.338;2023-02-11T11:54:20;13.37;;;7.97;;
10880;SDS011;5493;48.884;8.338;2023-02-11T11:56:52;10.47;;;6.93;;
10880;SDS011;5493;48.884;8.338;2023-02-11T11:59:24;12.07;;;7.47;;
10880;SDS011;5493;48.884;8.338;2023-02-11T12:01:54;14.53;;;8.80;;
10880;SDS011;5493;48.884;8.338;2023-02-11T12:04:36;13.77;;;7.97;;
10880;SDS011;5493;48.884;8.338;2023-02-11T12:07:17;12.37;;;7.90;;
10880;SDS011;5493;48.884;8.338;2023-02-11T12:13:06;15.30;;;9.37;;
10880;SDS011;5493;48.884;8.338;2023-02-11T12:15:47;13.67;;;8.87;;
10880;SDS011;5493;48.884;8.338;2023-02-11T12:18:29;11.43;;;7.93;;
10880;SDS011;5493;48.884;8.338;2023-02-11T12:21:16;14.43;;;8.60;;
10880;SDS011;5493;48.884;8.338;2023-02-11T12:23:57;14.57;;;8.30;;
10880;SDS011;5493;48.884;8.338;2023-02-11T12:26:35;54.93;;;28.37;;
10880;SDS011;5493;48.884;8.338;2023-02-11T12:29:15;54.03;;;28.20;;
10880;SDS011;5493;48.884;8.338;2023-02-11T12:31:53;13.07;;;9.27;;
10880;SDS011;5493;48.884;8.338;2023-02-11T12:34:39;13.87;;;10.00;;
10880;SDS011;5493;48.884;8.338;2023-02-11T12:37:17;16.27;;;9.63;;
10880;SDS011;5493;48.884;8.338;2023-02-11T12:39:54;14.57;;;9.90;;
10880;SDS011;5493;48.884;8.338;2023-02-11T12:42:43;15.37;;;10.33;;
10880;SDS011;5493;48.884;8.338;2023-02-11T12:45:40;13.83;;;9.03;;
10880;SDS011;5493;48.884;8.338;2023-02-11T12:48:20;14.57;;;9.83;;
10880;SDS011;5493;48.884;8.338;2023-02-11T12:51:00;13.43;;;9.17;;
10880;SDS011;5493;48.884;8.338;2023-02-11T12:53:39;16.37;;;9.47;;
10880;SDS011;5493;48.884;8.338;2023-02-11T12:56:35;14.93;;;8.93;;
10880;SDS011;5493;48.884;8.338;2023-02-11T12:59:06;13.33;;;8.93;;
10880;SDS011;5493;48.884;8.338;2023-02-11T13:01:38;15.90;;;9.47;;
10880;SDS011;5493;48.884;8.338;2023-02-11T13:04:09;13.50;;;9.23;;
10880;SDS011;5493;48.884;8.338;2023-02-11T13:06:40;13.37;;;9.13;;
10880;SDS011;5493;48.884;8.338;2023-02-11T13:09:10;16.80;;;9.70;;
10880;SDS011;5493;48.884;8.338;2023-02-11T13:11:43;17.33;;;10.20;;
10880;SDS011;5493;48.884;8.338;2023-02-11T13:14:17;15.70;;;9.27;;
10880;SDS011;5493;48.884;8.338;2023-02-11T13:16:50;13.47;;;8.93;;
10880;SDS011;5493;48.884;8.338;2023-02-11T13:19:19;17.30;;;11.10;;
10880;SDS011;5493;48.884;8.338;2023-02-11T13:21:55;17.57;;;11.43;;
10880;SDS011;5493;48.884;8.338;2023-02-11T13:24:33;18.73;;;12.80;;
10880;SDS011;5493;48.884;8.338;2023-02-11T13:27:08;16.10;;;10.33;;
10880;SDS011;5493;48.884;8.338;2023-02-11T13:29:54;18.07;;;11.50;;
10880;SDS011;5493;48.884;8.338;2023-02-11T13:35:31;13.97;;;9.73;;
10880;SDS011;5493;48.884;8.338;2023-02-11T13:37:59;15.30;;;9.97;;
10880;SDS011;5493;48.884;8.338;2023-02-11T13:40:27;14.83;;;9.40;;
10880;SDS011;5493;48.884;8.338;2023-02-11T13:42:59;12.70;;;9.40;;
10880;SDS011;5493;48.884;8.338;2023-02-11T13:45:28;14.57;;;10.40;;
10880;SDS011;5493;48.884;8.338;2023-02-11T13:47:56;16.53;;;10.57;;
10880;SDS011;5493;48.884;8.338;2023-02-11T13:50:26;15.20;;;10.20;;
10880;SDS011;5493;48.884;8.338;2023-02-11T13:52:58;17.20;;;11.03;;
10880;SDS011;5493;48.884;8.338;2023-02-11T13:55:26;15.93;;;10.87;;
10880;SDS011;5493;48.884;8.338;2023-02-11T14:00:46;15.43;;;10.10;;
10880;SDS011;5493;48.884;8.338;2023-02-11T14:03:30;15.07;;;10.87;;
10880;SDS011;5493;48.884;8.338;2023-02-11T14:06:21;14.10;;;10.43;;
10880;SDS011;5493;48.884;8.338;2023-02-11T14:09:09;15.27;;;10.40;;
10880;SDS011;5493;48.884;8.338;2023-02-11T14:17:52;20.07;;;10.37;;
10880;SDS011;5493;48.884;8.338;2023-02-11T14:20:35;16.37;;;10.57;;
10880;SDS011;5493;48.884;8.338;2023-02-11T14:23:15;13.53;;;10.67;;
10880;SDS011;5493;48.884;8.338;2023-02-11T14:25:55;16.80;;;10.60;;
10880;SDS011;5493;48.884;8.338;2023-02-11T14:28:30;15.47;;;10.20;;
10880;SDS011;5493;48.884;8.338;2023-02-11T14:30:58;17.50;;;11.57;;
10880;SDS011;5493;48.884;8.338;2023-02-11T14:33:49;17.93;;;12.27;;
10880;SDS011;5493;48.884;8.338;2023-02-11T14:39:21;14.60;;;10.17;;
10880;SDS011;5493;48.884;8.338;2023-02-11T14:41:58;20.40;;;11.50;;
10880;SDS011;5493;48.884;8.338;2023-02-11T14:44:28;15.17;;;10.77;;
10880;SDS011;5493;48.884;8.338;2023-02-11T14:46:58;14.03;;;10.10;;
10880;SDS011;5493;48.884;8.338;2023-02-11T14:49:25;18.43;;;11.07;;
10880;SDS011;5493;48.884;8.338;2023-02-11T14:51:55;16.70;;;11.30;;
10880;SDS011;5493;48.884;8.338;2023-02-11T14:54:25;17.07;;;11.30;;
10880;SDS011;5493;48.884;8.338;2023-02-11T14:57:08;16.77;;;11.23;;
10880;SDS011;5493;48.884;8.338;2023-02-11T14:59:38;18.27;;;11.87;;
10880;SDS011;5493;48.884;8.338;2023-02-11T15:02:15;16.37;;;10.93;;
10880;SDS011;5493;48.884;8.338;2023-02-11T15:04:46;19.23;;;11.87;;
10880;SDS011;5493;48.884;8.338;2023-02-11T15:07:12;22.10;;;13.40;;
10880;SDS011;5493;48.884;8.338;2023-02-11T15:09:41;16.23;;;12.13;;
10880;SDS011;5493;48.884;8.338;2023-02-11T15:12:14;19.53;;;11.90;;
10880;SDS011;5493;48.884;8.338;2023-02-11T15:14:44;19.10;;;13.17;;
10880;SDS011;5493;48.884;8.338;2023-02-11T15:17:13;20.53;;;12.67;;
10880;SDS011;5493;48.884;8.338;2023-02-11T15:19:43;17.80;;;11.70;;
10880;SDS011;5493;48.884;8.338;2023-02-11T15:22:15;18.87;;;11.70;;
10880;SDS011;5493;48.884;8.338;2023-02-11T15:24:44;21.10;;;12.13;;
10880;SDS011;5493;48.884;8.338;2023-02-11T15:27:12;18.87;;;12.70;;
10880;SDS011;5493;48.884;8.338;2023-02-11T15:29:42;20.23;;;12.77;;
10880;SDS011;5493;48.884;8.338;2023-02-11T15:32:11;21.13;;;13.50;;
10880;SDS011;5493;48.884;8.338;2023-02-11T15:34:40;15.37;;;11.17;;
10880;SDS011;5493;48.884;8.338;2023-02-11T15:37:09;19.40;;;12.23;;
10880;SDS011;5493;48.884;8.338;2023-02-11T15:39:39;19.27;;;12.13;;